This is the latest recevied weather packets stored in our database for station/object JH7UAX-10. If no packets are shown the sender has not sent any weather packets the latest 10 day(s).
| Time | Temp. | Humidity | Pressure | Rain* | Wind** | Luminosity | Snow |
|---|---|---|---|---|---|---|---|
| 1778000878 | 7.78° C | 74% | 1030.3 hPa | 0 mm | - | - | - |
| 1778000406 | 8.33° C | 74% | 1030.4 hPa | 0 mm | - | - | - |
| 1777999978 | 8.33° C | 74% | 1030.3 hPa | 0 mm | - | - | - |
| 1777999505 | 8.33° C | 73% | 1030.4 hPa | 0 mm | - | - | - |
| 1777999080 | 8.89° C | 71% | 1030.4 hPa | 0 mm | - | - | - |
| 1777998605 | 8.89° C | 69% | 1030.5 hPa | 0 mm | - | - | - |
| 1777998179 | 8.89° C | 70% | 1030.5 hPa | 0 mm | - | - | - |
| 1777997705 | 9.44° C | 68% | 1030.4 hPa | 0 mm | - | - | - |
| 1777997279 | 8.89° C | 69% | 1030.5 hPa | 0 mm | - | - | - |
| 1777996805 | 8.89° C | 69% | 1030.5 hPa | 0 mm | - | - | - |
| 1777996379 | 8.89° C | 72% | 1030.7 hPa | 0 mm | - | - | - |
| 1777995905 | 8.89° C | 74% | 1030.7 hPa | 0 mm | - | - | - |
| 1777995480 | 9.44° C | 71% | 1030.7 hPa | 0 mm | - | - | - |
| 1777995006 | 10° C | 70% | 1030.4 hPa | 0 mm | - | - | - |
| 1777994580 | 10° C | 69% | 1030.4 hPa | 0 mm | - | - | - |
| 1777993678 | 10.56° C | 61% | 1030.5 hPa | 0 mm | - | - | - |
| 1777993205 | 11.11° C | 59% | 1030.3 hPa | 0 mm | - | - | - |
| 1777992778 | 11.67° C | 59% | 1030.3 hPa | 0 mm | - | - | - |
| 1777991878 | 11.67° C | 58% | 1030.2 hPa | 0 mm | - | - | - |
| 1777991404 | 11.67° C | 58% | 1030.2 hPa | 0 mm | - | - | - |
| 1777990980 | 11.67° C | 58% | 1030.1 hPa | 0 mm | - | - | - |
| 1777990078 | 12.22° C | 59% | 1030.2 hPa | 0 mm | - | - | - |
| 1777989606 | 12.22° C | 59% | 1030.2 hPa | 0 mm | - | - | - |
| 1777989178 | 12.22° C | 60% | 1030 hPa | 0 mm | - | - | - |
| 1777988706 | 12.22° C | 61% | 1030 hPa | 0 mm | - | - | - |
* Rain latest hour (hover to see other rain measurements)
** Current wind speed in m/s (hover to see current wind gust speed)